Date,TemperatureHighF,TemperatureAvgF,TemperatureLowF,DewpointHighF,DewpointAvgF,DewpointLowF,HumidityHigh,HumidityAvg,HumidityLow,PressureMaxIn,PressureMinIn,WindSpeedMaxMPH,WindSpeedAvgMPH,GustSpeedMaxMPH,PrecipitationSumIn
2013-1-1,24,11,3,7,2,-1,85,69,41,0.00,40.00,5,3,12,0.01
2013-1-2,28,12,4,7,2,-2,84,66,39,0.00,40.00,6,3,13,0.01
2013-1-3,21,6,-7,-1,-5,-12,81,64,37,0.00,40.00,4,2,8,0.00
2013-1-4,24,8,-6,1,-4,-11,78,60,35,0.00,40.00,5,2,7,0.00
2013-1-5,27,9,-4,3,-2,-10,81,62,35,0.00,40.00,4,2,9,0.00
2013-1-6,25,9,-4,2,-2,-9,81,62,37,0.00,40.00,4,2,6,0.00
2013-1-7,32,14,0,6,1,-5,80,59,32,0.00,40.00,5,2,8,0.00
2013-1-8,35,18,6,9,5,1,80,58,33,0.00,40.00,5,2,9,0.00
2013-1-9,37,18,8,14,9,4,87,68,38,0.00,40.00,6,3,10,0.00
2013-1-10,38,22,7,22,12,3,88,68,34,0.00,40.00,10,3,25,0.00
2013-1-11,32,18,6,22,9,-1,92,66,44,0.00,40.00,15,8,36,0.00
2013-1-12,21,6,-4,0,-5,-10,80,61,31,0.00,40.00,7,3,16,0.01
2013-1-13,15,3,-4,-1,-6,-9,80,68,47,0.00,40.00,5,2,9,0.01
2013-1-14,17,0,-10,-6,-11,-17,77,60,34,0.00,40.00,5,2,8,0.00
2013-1-15,10,-2,-14,-8,-13,-20,73,58,40,0.00,40.00,4,2,7,0.00
2013-1-16,29,11,-2,4,-2,-9,72,56,33,0.00,40.00,4,2,9,0.00
2013-1-17,34,16,2,10,5,-2,84,64,36,0.00,40.00,4,2,7,0.00
2013-1-18,36,17,2,12,6,-2,85,65,37,0.00,40.00,4,2,7,0.00
2013-1-19,40,20,6,10,7,2,87,60,29,0.00,40.00,4,2,9,0.00
2013-1-20,39,21,6,9,6,2,84,55,29,0.00,40.00,5,2,7,0.00
2013-1-21,42,22,6,10,5,1,80,53,26,0.00,40.00,6,2,9,0.00
2013-1-22,46,24,8,9,4,0,70,45,20,0.00,40.00,5,3,8,0.00
2013-1-23,39,23,8,9,5,0,70,47,27,0.00,40.00,4,2,8,0.00
2013-1-24,49,31,19,31,19,7,92,63,26,0.00,40.00,7,3,19,0.00
2013-1-25,43,36,32,33,32,30,96,86,63,0.00,40.00,6,2,12,0.00
2013-1-26,45,36,32,32,31,29,98,82,56,0.00,40.00,4,2,7,0.02
2013-1-27,47,36,32,36,29,23,98,78,51,0.00,40.00,11,4,28,0.25
2013-1-28,34,28,15,30,25,11,98,90,66,0.00,40.00,8,4,25,0.05
2013-1-29,31,15,6,15,9,2,87,77,49,0.00,40.00,6,3,14,0.15
2013-1-30,26,15,5,16,9,1,84,76,59,0.00,40.00,10,6,23,0.05
2013-1-31,37,28,20,20,18,16,85,67,47,0.00,40.00,11,7,25,0.04